Time;durP1;ratioP1;P1;durP2;ratioP2;P2;SDS_P1;SDS_P2;PMS_P1;PMS_P2;Temp;Humidity;BMP_temperature;BMP_pressure;BME280_temperature;BME280_humidity;BME280_pressure;Samples;Min_cycle;Max_cycle;Signal;HPM_P1;HPM_P2
2021/07/08 00:02:18;;;;;;;2.78;2.58;;;13.90;99.90;;;;;;4995588;28;20053;-88
2021/07/08 00:04:45;;;;;;;8.50;3.10;;;14.00;99.90;;;;;;5006659;28;20129;-88
2021/07/08 00:07:12;;;;;;;3.35;2.67;;;14.00;99.90;;;;;;4996891;28;20590;-88
2021/07/08 00:09:39;;;;;;;5.10;3.40;;;14.00;99.90;;;;;;4994772;28;20105;-88
2021/07/08 00:12:07;;;;;;;4.55;3.22;;;14.10;99.90;;;;;;4994710;28;20073;-89
2021/07/08 00:14:35;;;;;;;3.50;2.90;;;14.10;99.90;;;;;;4994679;28;20138;-88
2021/07/08 00:17:06;;;;;;;6.75;2.63;;;14.10;99.90;;;;;;4994722;28;20184;-88
2021/07/08 00:19:35;;;;;;;2.97;2.78;;;14.10;99.90;;;;;;4994628;28;20081;-88
2021/07/08 00:22:03;;;;;;;2.85;2.65;;;14.10;99.90;;;;;;4994519;28;20137;-88
2021/07/08 00:24:30;;;;;;;5.18;2.40;;;14.10;99.90;;;;;;4994422;28;20121;-87
2021/07/08 00:26:56;;;;;;;2.50;2.22;;;14.10;99.90;;;;;;4994285;28;20058;-88
2021/07/08 00:29:23;;;;;;;4.28;2.30;;;14.00;99.90;;;;;;4994267;28;20056;-88
2021/07/08 00:31:50;;;;;;;4.75;2.60;;;14.00;99.90;;;;;;4994301;28;20050;-88
2021/07/08 00:34:17;;;;;;;6.10;3.08;;;13.90;99.90;;;;;;4996103;28;20068;-89
2021/07/08 00:36:44;;;;;;;6.63;2.70;;;13.80;99.90;;;;;;4996475;28;20114;-89
2021/07/08 00:39:11;;;;;;;2.80;2.55;;;13.80;99.90;;;;;;4995100;28;20054;-84
2021/07/08 00:41:37;;;;;;;2.67;2.47;;;13.80;99.90;;;;;;4994132;28;20125;-88
2021/07/08 00:44:05;;;;;;;3.22;2.63;;;13.80;99.90;;;;;;4993981;28;20161;-88
2021/07/08 00:46:31;;;;;;;4.85;3.08;;;13.80;99.90;;;;;;4994156;28;20077;-88
2021/07/08 00:48:59;;;;;;;3.55;2.40;;;13.70;99.90;;;;;;4994837;28;20054;-88
2021/07/08 00:51:26;;;;;;;3.08;2.80;;;13.70;99.90;;;;;;4993954;28;20410;-88
2021/07/08 00:53:53;;;;;;;9.60;3.78;;;13.70;99.90;;;;;;4993940;28;20062;-88
2021/07/08 00:56:20;;;;;;;3.72;3.13;;;13.70;99.90;;;;;;4993791;28;20524;-88
2021/07/08 00:59:05;;;;;;;4.68;2.70;;;13.50;99.90;;;;;;4993718;28;20050;-88
2021/07/08 01:01:32;;;;;;;6.38;3.08;;;13.40;99.90;;;;;;4993640;28;20046;-88
2021/07/08 01:04:02;;;;;;;3.50;3.20;;;13.40;99.90;;;;;;4993666;28;20062;-88
2021/07/08 01:06:33;;;;;;;5.50;3.10;;;13.40;99.90;;;;;;4993661;28;20056;-88
2021/07/08 01:09:01;;;;;;;5.03;3.00;;;13.50;99.90;;;;;;4993494;28;20057;-88
2021/07/08 01:11:28;;;;;;;3.75;3.55;;;13.50;99.90;;;;;;4994930;28;20077;-88
2021/07/08 01:13:55;;;;;;;4.40;3.42;;;13.60;99.90;;;;;;4993564;28;20061;-88
2021/07/08 01:16:24;;;;;;;5.55;3.17;;;13.50;99.90;;;;;;4992821;28;20050;-88
2021/07/08 01:18:51;;;;;;;3.58;3.25;;;13.70;99.90;;;;;;4993517;28;20042;-88
2021/07/08 01:21:19;;;;;;;4.40;3.15;;;13.70;99.90;;;;;;4993777;28;20061;-88
2021/07/08 01:23:46;;;;;;;5.82;3.58;;;13.80;99.90;;;;;;5003628;28;20060;-88
2021/07/08 01:26:13;;;;;;;3.83;3.17;;;13.80;99.90;;;;;;4997718;28;20046;-88
2021/07/08 01:28:40;;;;;;;5.57;3.10;;;13.80;99.90;;;;;;4993521;28;20426;-88
2021/07/08 01:31:10;;;;;;;7.13;3.20;;;13.80;99.90;;;;;;4994433;28;20521;-88
2021/07/08 01:33:37;;;;;;;4.50;3.50;;;13.80;99.90;;;;;;4994021;28;20129;-88
2021/07/08 01:36:04;;;;;;;3.47;3.10;;;13.70;99.90;;;;;;4994550;28;20054;-87
2021/07/08 01:38:31;;;;;;;3.30;3.10;;;13.70;99.90;;;;;;4993598;28;20074;-88
2021/07/08 01:40:59;;;;;;;5.57;3.15;;;13.60;99.90;;;;;;4993325;28;20056;-88
2021/07/08 01:43:26;;;;;;;3.83;2.75;;;13.60;99.90;;;;;;4993151;28;20046;-88
2021/07/08 01:45:52;;;;;;;3.47;3.28;;;13.70;99.90;;;;;;4993899;28;20046;-88
2021/07/08 01:48:20;;;;;;;3.42;3.22;;;13.70;99.90;;;;;;4993198;28;20533;-88
2021/07/08 01:50:47;;;;;;;4.80;2.90;;;13.70;99.90;;;;;;4993251;28;20042;-88
2021/07/08 01:53:16;;;;;;;3.25;3.15;;;13.80;99.90;;;;;;4993331;28;20052;-88
2021/07/08 01:55:43;;;;;;;3.85;2.83;;;13.90;99.90;;;;;;4993902;28;20260;-88
2021/07/08 01:58:09;;;;;;;2.97;2.67;;;13.90;99.90;;;;;;4992975;28;20563;-88
2021/07/08 02:00:36;;;;;;;2.70;2.30;;;13.90;99.90;;;;;;4993189;28;20082;-87
2021/07/08 02:03:04;;;;;;;3.00;2.60;;;13.90;99.90;;;;;;4992998;28;20054;-88
2021/07/08 02:05:30;;;;;;;3.30;3.00;;;13.90;99.90;;;;;;4992944;28;20483;-88
2021/07/08 02:07:57;;;;;;;5.32;2.90;;;13.90;99.90;;;;;;4993208;28;20081;-88
2021/07/08 02:10:24;;;;;;;4.30;2.78;;;13.90;99.90;;;;;;4993073;28;20076;-88
2021/07/08 02:12:51;;;;;;;4.60;3.20;;;13.90;99.90;;;;;;4992684;28;20048;-88
2021/07/08 02:15:19;;;;;;;4.50;2.90;;;13.80;99.90;;;;;;4992748;28;20058;-88
2021/07/08 02:17:46;;;;;;;2.90;2.70;;;13.80;99.90;;;;;;4992582;28;20050;-88
2021/07/08 02:20:14;;;;;;;2.97;2.83;;;13.80;99.90;;;;;;4992966;28;20050;-87
2021/07/08 02:22:42;;;;;;;3.42;2.90;;;13.90;99.90;;;;;;4992904;28;20058;-88
2021/07/08 02:25:10;;;;;;;7.28;2.97;;;13.90;99.90;;;;;;4992874;28;20136;-88
2021/07/08 02:27:37;;;;;;;3.05;2.53;;;13.90;99.90;;;;;;4993484;28;20129;-88
2021/07/08 02:30:16;;;;;;;6.15;2.65;;;13.90;99.90;;;;;;4996357;28;20085;-88
2021/07/08 02:32:44;;;;;;;3.38;2.55;;;13.90;99.90;;;;;;4996878;28;20506;-88
2021/07/08 02:35:12;;;;;;;4.05;2.30;;;14.00;99.90;;;;;;4996679;28;20509;-88
2021/07/08 02:37:39;;;;;;;6.65;2.58;;;14.00;99.90;;;;;;4996485;28;20544;-88
2021/07/08 02:40:10;;;;;;;4.50;3.08;;;14.10;99.90;;;;;;4996387;28;20050;-88
2021/07/08 02:42:37;;;;;;;4.20;2.88;;;14.00;99.90;;;;;;5002355;28;20137;-88
2021/07/08 02:45:08;;;;;;;6.88;2.90;;;13.90;99.90;;;;;;5002413;28;20054;-88
2021/07/08 02:47:35;;;;;;;2.78;2.60;;;14.00;99.90;;;;;;4997231;28;20050;-87
2021/07/08 02:50:03;;;;;;;7.65;2.67;;;14.00;99.90;;;;;;4996183;28;20046;-88
2021/07/08 02:52:30;;;;;;;2.17;2.08;;;14.10;99.90;;;;;;4996371;28;20046;-88
2021/07/08 02:54:57;;;;;;;2.60;2.50;;;14.10;99.90;;;;;;4997080;28;20053;-88
2021/07/08 02:57:24;;;;;;;6.03;3.03;;;14.00;99.90;;;;;;4997931;28;20068;-88
2021/07/08 02:59:50;;;;;;;3.38;3.17;;;13.90;99.90;;;;;;4997689;28;20058;-86
2021/07/08 03:02:17;;;;;;;2.90;2.80;;;13.90;99.90;;;;;;4996487;28;20052;-89
2021/07/08 03:04:44;;;;;;;5.05;2.70;;;13.90;99.90;;;;;;4996126;28;20594;-88
2021/07/08 03:07:11;;;;;;;3.13;2.90;;;14.00;99.90;;;;;;4995983;28;20046;-88
2021/07/08 03:09:38;;;;;;;3.25;2.60;;;14.10;99.90;;;;;;4995905;28;20495;-88
2021/07/08 03:12:05;;;;;;;6.05;2.85;;;14.10;99.90;;;;;;4996233;28;20491;-88
2021/07/08 03:14:32;;;;;;;8.70;3.10;;;14.00;99.90;;;;;;4996229;28;20053;-88
2021/07/08 03:16:59;;;;;;;2.95;2.72;;;14.00;99.90;;;;;;4996894;28;20504;-88
2021/07/08 03:19:27;;;;;;;7.38;2.97;;;13.90;99.90;;;;;;4996006;28;20047;-88
2021/07/08 03:21:53;;;;;;;2.97;2.70;;;14.00;99.90;;;;;;4995470;28;20050;-88
2021/07/08 03:24:20;;;;;;;3.35;3.03;;;14.10;99.90;;;;;;4995883;28;20057;-88
2021/07/08 03:26:47;;;;;;;5.22;3.00;;;14.10;99.90;;;;;;4995709;28;20509;-88
2021/07/08 03:29:14;;;;;;;4.13;2.80;;;14.10;99.90;;;;;;4995848;28;20050;-88
2021/07/08 03:31:41;;;;;;;4.38;2.70;;;14.10;99.90;;;;;;4995785;28;20058;-87
2021/07/08 03:34:08;;;;;;;3.38;2.65;;;14.10;99.90;;;;;;4995501;28;20042;-88
2021/07/08 03:36:34;;;;;;;2.85;2.70;;;14.10;99.90;;;;;;4996437;28;20062;-88
2021/07/08 03:39:03;;;;;;;2.83;2.58;;;14.10;99.90;;;;;;4994377;28;20050;-88
2021/07/08 03:41:30;;;;;;;3.88;3.58;;;14.20;99.90;;;;;;4995296;28;20141;-87
2021/07/08 03:43:58;;;;;;;3.33;3.03;;;14.10;99.90;;;;;;4995490;28;20491;-88
2021/07/08 03:46:24;;;;;;;3.50;3.30;;;14.20;99.90;;;;;;4995545;28;20050;-88
2021/07/08 03:48:52;;;;;;;4.03;3.20;;;14.30;99.90;;;;;;4995094;28;20085;-89
2021/07/08 03:51:18;;;;;;;3.75;2.97;;;14.30;99.90;;;;;;4995286;28;20057;-88
2021/07/08 03:53:45;;;;;;;3.85;2.83;;;14.30;99.90;;;;;;4995331;28;20053;-88
2021/07/08 03:56:13;;;;;;;3.85;2.75;;;14.30;99.90;;;;;;4997006;28;20054;-89
2021/07/08 03:58:41;;;;;;;3.05;2.85;;;14.30;99.90;;;;;;5001800;28;20121;-87
2021/07/08 04:01:08;;;;;;;6.97;2.85;;;14.30;99.90;;;;;;4996258;28;20057;-88
2021/07/08 04:03:35;;;;;;;3.65;2.92;;;14.20;99.90;;;;;;5011232;28;20081;-89
2021/07/08 04:06:02;;;;;;;3.40;3.05;;;14.20;99.90;;;;;;4999029;28;20077;-90
2021/07/08 04:08:28;;;;;;;3.25;3.05;;;14.30;99.90;;;;;;4995062;28;20133;-88
2021/07/08 04:10:55;;;;;;;3.03;2.72;;;14.30;99.90;;;;;;4994561;28;20053;-88
2021/07/08 04:13:22;;;;;;;2.88;2.67;;;14.50;99.90;;;;;;4995768;28;20053;-88
2021/07/08 04:15:51;;;;;;;4.10;2.80;;;14.50;99.90;;;;;;4994336;28;20074;-89
2021/07/08 04:18:19;;;;;;;3.47;3.13;;;14.60;99.90;;;;;;4994470;28;20058;-89
2021/07/08 04:20:47;;;;;;;4.72;2.47;;;14.60;99.90;;;;;;4995610;28;20043;-89
2021/07/08 04:23:15;;;;;;;6.15;2.90;;;14.70;99.90;;;;;;4994298;28;20129;-88
2021/07/08 04:25:42;;;;;;;3.60;2.83;;;14.70;99.90;;;;;;4995418;28;20093;-88
2021/07/08 04:28:10;;;;;;;4.85;2.50;;;14.70;99.90;;;;;;4994567;28;20061;-88
2021/07/08 04:30:38;;;;;;;2.63;2.40;;;14.80;99.90;;;;;;4994178;28;20050;-88
2021/07/08 04:33:06;;;;;;;3.33;2.65;;;14.90;99.90;;;;;;4994404;28;20495;-87
2021/07/08 04:35:36;;;;;;;4.53;2.83;;;15.00;99.90;;;;;;4994190;28;20478;-88
2021/07/08 04:38:06;;;;;;;3.33;2.58;;;15.00;99.90;;;;;;4994494;28;20590;-88
2021/07/08 04:40:33;;;;;;;3.70;2.22;;;15.10;99.90;;;;;;4994264;28;20050;-88
2021/07/08 04:43:03;;;;;;;9.45;2.50;;;15.20;99.90;;;;;;4994098;28;20073;-87
2021/07/08 04:45:30;;;;;;;9.82;2.45;;;15.20;99.90;;;;;;4993816;28;20133;-88
2021/07/08 04:47:57;;;;;;;5.20;2.40;;;15.20;99.90;;;;;;4994026;28;20042;-89
2021/07/08 04:50:24;;;;;;;2.60;2.30;;;15.20;99.90;;;;;;4994794;28;20055;-88
2021/07/08 04:52:52;;;;;;;4.75;2.50;;;15.20;99.90;;;;;;4994154;28;20050;-88
2021/07/08 04:55:22;;;;;;;2.55;1.98;;;15.20;99.90;;;;;;4993872;28;20061;-88
2021/07/08 04:57:50;;;;;;;4.13;2.10;;;15.30;99.90;;;;;;4993447;28;20056;-88
2021/07/08 05:00:19;;;;;;;3.33;2.00;;;15.30;99.90;;;;;;4994120;28;20141;-87
2021/07/08 05:02:46;;;;;;;2.55;1.98;;;15.40;99.90;;;;;;4994057;28;20137;-88
2021/07/08 05:05:15;;;;;;;2.25;2.03;;;15.40;99.90;;;;;;4993811;28;20406;-88
2021/07/08 05:07:42;;;;;;;4.78;2.20;;;15.40;99.90;;;;;;4993566;28;20064;-89
2021/07/08 05:10:12;;;;;;;2.22;1.92;;;15.40;99.90;;;;;;4993757;28;20054;-88
2021/07/08 05:12:40;;;;;;;2.00;1.70;;;15.40;99.90;;;;;;4993960;28;20054;-88
2021/07/08 05:15:09;;;;;;;2.00;1.80;;;15.50;99.90;;;;;;4995634;28;20050;-88
2021/07/08 05:17:37;;;;;;;8.07;2.25;;;15.50;99.90;;;;;;4999173;28;20133;-88
2021/07/08 05:20:05;;;;;;;27.13;2.90;;;15.50;99.90;;;;;;4995135;28;20133;-88
2021/07/08 05:22:34;;;;;;;6.32;2.00;;;15.50;99.90;;;;;;5002228;28;20058;-88
2021/07/08 05:25:01;;;;;;;5.35;2.17;;;15.40;99.90;;;;;;4999050;28;20141;-88
2021/07/08 05:27:30;;;;;;;3.05;2.20;;;15.50;99.90;;;;;;4993724;28;20065;-88
2021/07/08 05:29:57;;;;;;;2.45;2.00;;;15.50;99.90;;;;;;4993285;28;20053;-88
2021/07/08 05:32:24;;;;;;;2.13;2.03;;;15.50;99.90;;;;;;4993208;28;20054;-88
2021/07/08 05:34:51;;;;;;;11.27;2.10;;;15.60;99.90;;;;;;4993329;28;20137;-88
2021/07/08 05:37:18;;;;;;;10.48;2.47;;;15.70;99.90;;;;;;4993245;28;20060;-88
2021/07/08 05:39:44;;;;;;;1.90;1.80;;;15.80;99.90;;;;;;4994428;28;20446;-89
2021/07/08 05:42:11;;;;;;;1.63;1.50;;;15.80;99.90;;;;;;4993281;28;20050;-88
2021/07/08 05:44:38;;;;;;;2.25;1.70;;;15.80;99.90;;;;;;4993373;28;20042;-88
2021/07/08 05:47:05;;;;;;;4.20;1.80;;;15.90;99.90;;;;;;4993193;28;20145;-88
2021/07/08 05:49:52;;;;;;;2.80;1.88;;;15.90;99.90;;;;;;4993043;28;20042;-88
2021/07/08 05:52:19;;;;;;;1.98;1.85;;;16.00;99.90;;;;;;4994546;28;20046;-89
2021/07/08 05:54:45;;;;;;;2.92;1.70;;;16.10;99.90;;;;;;4993149;28;20055;-90
2021/07/08 05:57:12;;;;;;;2.17;2.08;;;16.10;99.90;;;;;;4993070;28;20499;-88
2021/07/08 05:59:39;;;;;;;2.22;2.10;;;16.10;99.90;;;;;;4993144;28;20487;-88
2021/07/08 06:02:06;;;;;;;2.00;1.48;;;16.20;99.90;;;;;;4993366;28;20141;-88
2021/07/08 06:04:33;;;;;;;6.20;1.67;;;16.20;99.90;;;;;;4996979;28;20046;-88
2021/07/08 06:07:00;;;;;;;2.38;1.60;;;16.20;99.90;;;;;;4997195;28;20105;-88
2021/07/08 06:09:26;;;;;;;2.03;1.85;;;16.30;99.90;;;;;;4998015;28;20702;-88
2021/07/08 06:11:53;;;;;;;3.42;1.80;;;16.30;99.90;;;;;;4997421;28;20054;-88
2021/07/08 06:14:20;;;;;;;4.13;3.35;;;16.40;99.90;;;;;;4997319;28;20502;-89
2021/07/08 06:16:47;;;;;;;6.47;5.18;;;16.60;99.90;;;;;;4996706;28;20133;-88
2021/07/08 06:19:14;;;;;;;5.97;3.47;;;16.80;99.90;;;;;;4996842;28;20410;-88
2021/07/08 06:21:40;;;;;;;13.20;6.32;;;17.10;99.90;;;;;;4996825;28;20054;-88
2021/07/08 06:24:08;;;;;;;15.13;11.40;;;17.40;99.90;;;;;;4996973;28;20399;-89
2021/07/08 06:26:35;;;;;;;24.38;16.48;;;17.80;99.90;;;;;;4996703;28;20065;-88
2021/07/08 06:29:02;;;;;;;16.23;12.00;;;18.00;99.90;;;;;;4996788;28;20054;-88
2021/07/08 06:31:29;;;;;;;5.28;4.78;;;18.20;99.90;;;;;;4996390;28;20097;-88
2021/07/08 06:33:56;;;;;;;2.38;2.08;;;18.50;99.90;;;;;;4997126;28;20054;-89
2021/07/08 06:36:23;;;;;;;3.65;1.50;;;18.90;99.90;;;;;;4997204;28;20137;-89
2021/07/08 06:38:50;;;;;;;10.40;1.85;;;19.60;99.90;;;;;;4997178;28;20050;-88
2021/07/08 06:41:16;;;;;;;2.53;1.60;;;20.40;99.90;;;;;;5005396;28;20133;-89
2021/07/08 06:43:44;;;;;;;9.07;2.55;;;21.50;99.90;;;;;;5004908;28;20150;-89
2021/07/08 06:46:17;;;;;;;10.35;3.00;;;22.00;99.90;;;;;;4996515;28;20066;-89
2021/07/08 06:48:46;;;;;;;7.95;2.50;;;22.10;99.90;;;;;;4996677;28;20108;-89
2021/07/08 06:51:14;;;;;;;7.95;1.92;;;21.60;99.90;;;;;;4996582;28;20054;-89
2021/07/08 06:53:40;;;;;;;4.95;1.85;;;21.10;99.90;;;;;;4996638;28;20154;-89
2021/07/08 06:56:07;;;;;;;4.15;1.77;;;20.80;99.90;;;;;;4996186;28;20146;-89
2021/07/08 06:58:34;;;;;;;6.43;1.83;;;20.70;99.90;;;;;;4996253;28;20046;-89
2021/07/08 07:01:00;;;;;;;6.43;1.70;;;20.50;99.90;;;;;;4996225;28;20059;-89
2021/07/08 07:03:27;;;;;;;5.80;1.73;;;20.50;99.90;;;;;;4996361;28;20548;-89
2021/07/08 07:05:54;;;;;;;3.55;1.85;;;20.60;99.90;;;;;;4996042;28;20060;-89
2021/07/08 07:08:21;;;;;;;2.42;1.33;;;20.60;99.90;;;;;;4995996;28;20054;-89
2021/07/08 07:10:48;;;;;;;2.08;1.80;;;20.70;99.90;;;;;;4995798;28;20509;-89
2021/07/08 07:13:14;;;;;;;1.77;1.67;;;20.60;99.90;;;;;;4995838;28;20113;-89
2021/07/08 07:15:42;;;;;;;4.47;2.17;;;20.60;99.90;;;;;;4996001;28;20148;-89
2021/07/08 07:18:09;;;;;;;10.57;2.50;;;20.60;99.90;;;;;;4995782;28;20046;-89
2021/07/08 07:20:36;;;;;;;5.35;2.40;;;20.60;99.90;;;;;;4996126;28;20042;-90
2021/07/08 07:23:06;;;;;;;15.77;2.80;;;20.60;99.90;;;;;;4995445;28;20419;-89
2021/07/08 07:25:39;;;;;;;12.57;3.08;;;20.50;99.90;;;;;;4995698;28;20061;-89
2021/07/08 07:28:08;;;;;;;7.32;2.40;;;20.50;99.90;;;;;;4995723;28;20078;-88
2021/07/08 07:30:36;;;;;;;5.90;3.00;;;20.40;99.90;;;;;;4995907;28;20054;-89
2021/07/08 07:33:03;;;;;;;11.38;9.32;;;20.30;99.90;;;;;;4995903;28;20050;-89
2021/07/08 07:35:30;;;;;;;3.60;3.20;;;20.30;99.90;;;;;;4996297;28;20070;-89
2021/07/08 07:37:57;;;;;;;5.18;1.98;;;20.20;99.90;;;;;;4998584;28;20110;-90
2021/07/08 07:40:24;;;;;;;6.20;1.60;;;20.00;99.90;;;;;;4996796;28;20093;-89
2021/07/08 07:42:51;;;;;;;3.45;1.70;;;19.90;99.90;;;;;;4995370;28;20050;-89
2021/07/08 07:45:19;;;;;;;3.28;1.55;;;19.80;99.90;;;;;;4995213;28;20042;-89
2021/07/08 07:47:51;;;;;;;3.70;1.83;;;19.60;99.90;;;;;;4995407;28;20050;-89
2021/07/08 07:50:19;;;;;;;7.68;1.73;;;19.60;99.90;;;;;;4995217;28;20058;-89
2021/07/08 07:52:46;;;;;;;5.90;1.90;;;19.60;99.90;;;;;;4995156;28;20137;-89
2021/07/08 07:55:13;;;;;;;8.70;2.53;;;19.50;99.90;;;;;;4995141;28;20054;-89
2021/07/08 07:57:41;;;;;;;8.02;2.65;;;19.40;99.90;;;;;;4995340;28;20058;-92
2021/07/08 08:00:08;;;;;;;9.32;2.45;;;19.10;99.90;;;;;;5001037;28;20050;-90
2021/07/08 08:02:35;;;;;;;4.70;2.38;;;19.00;99.90;;;;;;5016029;28;20070;-91
2021/07/08 08:10:19;;;;;;;2.95;2.35;;;18.40;99.90;;;;;;4996430;28;20054;-92
2021/07/08 08:12:47;;;;;;;4.13;2.60;;;18.20;99.90;;;;;;4995084;28;20133;-93
2021/07/08 08:15:17;;;;;;;2.17;2.08;;;18.00;99.90;;;;;;4995335;28;20050;-93
2021/07/08 08:17:46;;;;;;;2.60;2.40;;;17.80;99.90;;;;;;4995032;28;20304;-92
2021/07/08 08:20:15;;;;;;;2.58;2.47;;;17.70;99.90;;;;;;4995105;28;20050;-92
2021/07/08 08:22:43;;;;;;;5.40;2.83;;;17.60;99.90;;;;;;4996906;28;20092;-92
2021/07/08 08:25:11;;;;;;;6.85;3.33;;;17.60;99.90;;;;;;4994740;28;20125;-90
2021/07/08 08:27:39;;;;;;;4.78;2.78;;;17.70;99.90;;;;;;4994861;28;20141;-90
2021/07/08 08:30:07;;;;;;;6.40;2.88;;;17.70;99.90;;;;;;4994475;28;20413;-90
2021/07/08 08:32:34;;;;;;;4.93;3.00;;;17.70;99.90;;;;;;4994786;28;20058;-92
2021/07/08 08:35:02;;;;;;;3.88;2.72;;;17.70;99.90;;;;;;4994800;28;20057;-94
2021/07/08 08:37:28;;;;;;;8.18;3.53;;;17.70;99.90;;;;;;4995177;28;20142;-94
2021/07/08 08:39:55;;;;;;;5.43;3.50;;;17.60;99.90;;;;;;4994779;28;20070;-90
2021/07/08 08:42:25;;;;;;;3.67;3.40;;;17.60;99.90;;;;;;4994622;28;20136;-89
2021/07/08 08:44:52;;;;;;;5.70;3.30;;;17.60;99.90;;;;;;4994243;28;20082;-89
2021/07/08 08:47:21;;;;;;;3.30;3.08;;;17.70;99.90;;;;;;4994649;28;20055;-90
2021/07/08 08:49:53;;;;;;;3.00;2.80;;;17.80;99.90;;;;;;4994424;28;20060;-91
2021/07/08 08:52:20;;;;;;;4.00;2.90;;;17.80;99.90;;;;;;4994350;28;20129;-91
2021/07/08 08:54:51;;;;;;;3.40;3.20;;;17.90;99.90;;;;;;4994677;28;20076;-92
2021/07/08 08:57:18;;;;;;;3.17;2.92;;;17.90;99.90;;;;;;4994422;28;20133;-90
2021/07/08 08:59:45;;;;;;;3.17;2.90;;;18.00;99.90;;;;;;4994227;28;20064;-91
2021/07/08 09:02:13;;;;;;;4.10;2.97;;;18.20;99.90;;;;;;4994557;28;20052;-92
2021/07/08 09:04:40;;;;;;;3.38;2.88;;;18.20;99.90;;;;;;4994257;28;20100;-91
2021/07/08 09:07:27;;;;;;;3.33;2.90;;;18.20;99.90;;;;;;4994380;28;20555;-91
2021/07/08 09:09:56;;;;;;;4.63;3.13;;;18.20;99.90;;;;;;4994234;28;20142;-91
2021/07/08 09:12:24;;;;;;;3.53;3.33;;;18.20;99.90;;;;;;4993989;28;20051;-90
2021/07/08 09:15:18;;;;;;;3.78;3.40;;;18.30;99.90;;;;;;4993986;28;20411;-90
2021/07/08 09:17:46;;;;;;;3.55;3.25;;;18.40;99.90;;;;;;4991267;28;20054;-92
2021/07/08 09:20:20;;;;;;;3.72;3.33;;;18.60;99.90;;;;;;5003166;28;20031;-90
2021/07/08 09:22:48;;;;;;;3.47;3.17;;;18.70;99.90;;;;;;5004180;28;20085;-90
2021/07/08 09:25:21;;;;;;;3.15;2.95;;;18.80;99.90;;;;;;4994460;28;20046;-89
2021/07/08 09:27:50;;;;;;;5.55;3.72;;;18.90;99.90;;;;;;4993923;28;20142;-91
2021/07/08 09:30:28;;;;;;;5.95;2.92;;;18.90;99.90;;;;;;4993754;28;20050;-91
2021/07/08 09:32:55;;;;;;;4.65;3.28;;;18.90;99.90;;;;;;4993837;28;20495;-91
2021/07/08 09:35:37;;;;;;;5.07;2.85;;;18.90;99.90;;;;;;4993884;28;20085;-92
2021/07/08 09:38:22;;;;;;;4.00;3.55;;;18.90;99.90;;;;;;4992845;28;20562;-91
2021/07/08 09:41:06;;;;;;;5.53;3.35;;;18.90;99.90;;;;;;4993838;28;20149;-91
2021/07/08 09:43:34;;;;;;;7.68;3.50;;;19.00;99.90;;;;;;4993940;28;20058;-92
2021/07/08 09:46:01;;;;;;;9.70;3.70;;;19.10;99.90;;;;;;4994025;28;20053;-91
2021/07/08 09:48:28;;;;;;;5.40;3.05;;;18.90;99.90;;;;;;4993558;28;20076;-91
2021/07/08 09:50:55;;;;;;;9.50;3.45;;;18.70;99.90;;;;;;4993559;28;20058;-90
2021/07/08 09:53:26;;;;;;;6.15;2.97;;;18.90;99.90;;;;;;4993816;28;20046;-91
2021/07/08 09:58:49;;;;;;;;;;;19.20;99.90;;;;;;5002136;28;20061;-90
2021/07/08 10:01:19;;;;;;;3.00;2.75;;;19.40;99.90;;;;;;4998448;28;20436;-90
2021/07/08 10:03:48;;;;;;;5.68;3.60;;;19.50;99.90;;;;;;4993111;28;20201;-89
2021/07/08 10:06:15;;;;;;;9.98;4.68;;;19.50;99.90;;;;;;4993033;28;20050;-89
2021/07/08 10:08:43;;;;;;;7.30;4.70;;;19.30;99.90;;;;;;4993005;28;20141;-89
2021/07/08 10:11:15;;;;;;;6.72;4.28;;;19.30;99.90;;;;;;4993119;28;20408;-89
2021/07/08 10:13:43;;;;;;;5.45;3.70;;;19.30;99.90;;;;;;4993138;28;20074;-89
2021/07/08 10:16:13;;;;;;;6.13;3.70;;;19.60;99.90;;;;;;4993071;28;20054;-89
2021/07/08 10:18:43;;;;;;;4.97;3.75;;;19.70;99.90;;;;;;4996403;28;20411;-89
2021/07/08 10:21:11;;;;;;;7.00;3.20;;;20.20;99.90;;;;;;4993325;28;20050;-89
2021/07/08 10:23:40;;;;;;;5.78;3.03;;;20.60;99.90;;;;;;4992677;28;20054;-89
2021/07/08 10:26:09;;;;;;;6.15;3.05;;;21.10;99.90;;;;;;4992865;28;20058;-89
2021/07/08 10:28:46;;;;;;;3.67;2.38;;;21.00;99.90;;;;;;4993110;28;20462;-89
2021/07/08 10:31:20;;;;;;;5.75;2.67;;;21.00;99.90;;;;;;4992849;28;20042;-88
2021/07/08 10:34:06;;;;;;;;;;;21.00;99.90;;;;;;4993409;28;20077;-87
2021/07/08 10:36:34;;;;;;;6.55;2.88;;;21.00;99.90;;;;;;4993021;28;20322;-88
2021/07/08 10:39:04;;;;;;;8.80;2.92;;;21.00;99.90;;;;;;4995186;28;20054;-90
2021/07/08 10:41:30;;;;;;;4.30;2.75;;;20.90;99.90;;;;;;5002351;28;20122;-89
2021/07/08 10:43:57;;;;;;;9.27;3.20;;;20.70;99.90;;;;;;4998057;28;20070;-89
2021/07/08 10:46:44;;;;;;;7.13;3.03;;;20.60;99.90;;;;;;4993094;28;20054;-89
2021/07/08 10:49:13;;;;;;;5.88;2.92;;;20.70;99.90;;;;;;4994535;28;20046;-89
2021/07/08 10:51:44;;;;;;;8.52;3.47;;;20.90;99.90;;;;;;4996177;28;20050;-88
2021/07/08 10:54:28;;;;;;;4.05;2.22;;;20.90;99.90;;;;;;4996340;28;20053;-89
2021/07/08 10:56:56;;;;;;;2.50;2.30;;;21.10;99.90;;;;;;4996368;28;20078;-89
2021/07/08 10:59:36;;;;;;;4.65;3.17;;;21.30;99.90;;;;;;4996320;28;20060;-88
2021/07/08 11:02:03;;;;;;;3.40;3.10;;;21.60;99.90;;;;;;4997058;28;20138;-89
2021/07/08 11:04:49;;;;;;;5.07;3.05;;;21.80;99.90;;;;;;4996059;28;20410;-88
2021/07/08 11:07:21;;;;;;;3.40;3.10;;;21.80;99.90;;;;;;4997483;28;20046;-88
2021/07/08 11:10:05;;;;;;;4.28;3.22;;;21.70;99.90;;;;;;4996020;28;20055;-88
2021/07/08 11:12:35;;;;;;;3.70;3.47;;;21.80;99.90;;;;;;4995927;28;20466;-87
2021/07/08 11:15:04;;;;;;;5.18;3.55;;;21.70;99.90;;;;;;4996214;28;20050;-90
2021/07/08 11:17:39;;;;;;;4.65;3.67;;;21.50;99.90;;;;;;4999079;28;20054;-88
2021/07/08 11:20:26;;;;;;;4.28;3.53;;;21.50;99.90;;;;;;4998357;28;20058;-89
2021/07/08 11:22:53;;;;;;;3.67;3.38;;;21.80;99.90;;;;;;4995723;28;20054;-89
2021/07/08 11:25:40;;;;;;;3.47;3.20;;;22.10;99.90;;;;;;4995781;28;20462;-88
2021/07/08 11:28:30;;;;;;;3.70;3.47;;;22.50;99.90;;;;;;4995847;28;20414;-89
2021/07/08 11:31:01;;;;;;;5.38;3.72;;;22.60;99.90;;;;;;4995526;28;20125;-89
2021/07/08 11:33:30;;;;;;;5.43;5.03;;;22.50;99.90;;;;;;4995376;28;20061;-88
2021/07/08 11:36:01;;;;;;;3.90;3.70;;;22.40;99.90;;;;;;4995390;28;20125;-87
2021/07/08 11:38:31;;;;;;;8.48;4.85;;;22.90;99.90;;;;;;4995673;28;20077;-88
2021/07/08 11:40:58;;;;;;;4.30;3.90;;;23.50;99.90;;;;;;4996404;28;20126;-89
2021/07/08 11:43:33;;;;;;;4.47;4.18;;;24.10;99.90;;;;;;4996376;28;20451;-88
2021/07/08 11:46:09;;;;;;;4.43;3.53;;;24.70;99.90;;;;;;4995387;28;20128;-88
2021/07/08 11:48:41;;;;;;;9.23;4.43;;;24.60;99.90;;;;;;4995527;28;20074;-89
2021/07/08 11:51:18;;;;;;;4.75;3.60;;;24.50;99.90;;;;;;4995268;28;20104;-87
2021/07/08 11:53:46;;;;;;;5.28;4.88;;;24.40;99.90;;;;;;4992063;28;20133;-89
2021/07/08 11:56:16;;;;;;;5.07;4.53;;;24.60;99.90;;;;;;4996370;28;20046;-88
2021/07/08 11:58:43;;;;;;;5.45;4.93;;;24.40;99.90;;;;;;4999522;28;20046;-89
2021/07/08 12:01:12;;;;;;;5.22;4.85;;;24.40;99.90;;;;;;5001622;28;20121;-88
2021/07/08 12:03:44;;;;;;;6.82;4.07;;;24.30;99.90;;;;;;4997722;28;20054;-88
2021/07/08 12:06:20;;;;;;;4.63;3.30;;;24.10;99.90;;;;;;4995196;28;20050;-89
2021/07/08 12:08:55;;;;;;;6.40;2.92;;;23.80;99.90;;;;;;4995508;28;20057;-93
2021/07/08 12:11:36;;;;;;;4.53;3.42;;;23.60;99.90;;;;;;4995060;28;20046;-89
2021/07/08 12:14:09;;;;;;;4.25;2.72;;;23.20;99.90;;;;;;4995371;28;20125;-90
2021/07/08 12:16:38;;;;;;;4.03;2.75;;;23.30;99.90;;;;;;4994948;28;20503;-89
2021/07/08 12:19:15;;;;;;;3.40;2.92;;;23.50;99.90;;;;;;4994761;28;20046;-89
2021/07/08 12:21:44;;;;;;;4.95;2.97;;;23.70;99.90;;;;;;4994632;28;20517;-89
2021/07/08 12:24:24;;;;;;;4.15;2.90;;;24.00;99.90;;;;;;4995527;28;20509;-90
2021/07/08 12:26:54;;;;;;;2.90;2.75;;;24.20;99.90;;;;;;4994634;28;20054;-90
2021/07/08 12:29:32;;;;;;;2.83;2.60;;;23.80;99.90;;;;;;4995034;28;20345;-89
2021/07/08 12:32:02;;;;;;;2.80;2.47;;;24.10;99.90;;;;;;4994337;28;20054;-90
2021/07/08 12:34:37;;;;;;;2.38;2.03;;;24.20;99.90;;;;;;4994587;28;20056;-89
2021/07/08 12:37:16;;;;;;;3.53;2.08;;;24.80;99.90;;;;;;4994899;28;20057;-89
2021/07/08 12:39:45;;;;;;;3.00;2.13;;;25.30;99.90;;;;;;4995016;28;20137;-91
2021/07/08 12:42:20;;;;;;;7.38;2.70;;;25.30;99.90;;;;;;4994908;28;20058;-90
2021/07/08 12:44:50;;;;;;;1.65;1.50;;;25.20;99.90;;;;;;4994339;28;20061;-90
2021/07/08 12:47:17;;;;;;;2.55;1.63;;;25.60;99.90;;;;;;4994608;28;20133;-90
2021/07/08 12:49:49;;;;;;;2.72;1.58;;;26.00;99.90;;;;;;4994239;28;20046;-90
2021/07/08 12:52:18;;;;;;;5.45;1.48;;;26.10;99.90;;;;;;4994775;28;20050;-90
2021/07/08 12:54:45;;;;;;;1.55;1.50;;;26.10;99.90;;;;;;4994173;28;20118;-90
2021/07/08 12:57:17;;;;;;;1.67;1.50;;;26.30;99.90;;;;;;4994035;28;20069;-90
2021/07/08 12:59:59;;;;;;;1.63;1.48;;;26.40;99.90;;;;;;4995207;28;20076;-92
2021/07/08 13:02:29;;;;;;;1.70;1.45;;;25.90;99.90;;;;;;4994773;28;20065;-91
2021/07/08 13:05:00;;;;;;;2.45;1.40;;;26.10;99.90;;;;;;4994049;28;20142;-90
2021/07/08 13:07:27;;;;;;;1.67;1.20;;;25.90;99.90;;;;;;4993302;28;20062;-91